Time,TemperatureF,DewpointF,PressureIn,WindDirection,WindDirectionDegrees,WindSpeedMPH,WindSpeedGustMPH,Humidity,HourlyPrecipIn,Conditions,Clouds,dailyrainin,SoftwareType,DateUTC
2013-07-30 00:03:00,81.0,75.0,30.14,SE,135,6.0,11.0,82,-99.99,,,-99.99,,2013-07-30 04:03:00,
2013-07-30 00:13:00,81.0,75.0,30.14,SE,135,6.0,11.0,82,-99.99,,,-99.99,,2013-07-30 04:13:00,
2013-07-30 00:43:00,81.0,76.0,30.14,SE,134,6.0,10.0,83,-99.99,,,-99.99,,2013-07-30 04:43:00,
2013-07-30 00:53:00,81.0,76.0,30.14,SE,134,6.0,10.0,83,-99.99,,,-99.99,,2013-07-30 04:53:00,
2013-07-30 01:03:00,81.0,76.0,30.14,SE,134,6.0,10.0,83,-99.99,,,-99.99,,2013-07-30 05:03:00,
2013-07-30 01:13:00,81.0,76.0,30.14,SE,134,6.0,10.0,83,-99.99,,,-99.99,,2013-07-30 05:13:00,
2013-07-30 01:23:00,81.0,76.0,30.14,SE,134,6.0,10.0,83,-99.99,,,-99.99,,2013-07-30 05:23:00,
2013-07-30 02:30:00,81.0,75.0,30.12,SE,137,6.0,10.0,82,-99.99,,,-99.99,,2013-07-30 06:30:00,
2013-07-30 02:43:00,81.0,75.0,30.12,SE,132,5.0,8.0,82,-99.99,,,-99.99,,2013-07-30 06:43:00,
2013-07-30 03:03:00,81.0,75.0,30.12,SE,137,6.0,10.0,82,-99.99,,,-99.99,,2013-07-30 07:03:00,
2013-07-30 03:13:00,81.0,75.0,30.12,SE,137,6.0,10.0,82,-99.99,,,-99.99,,2013-07-30 07:13:00,
2013-07-30 03:23:00,81.0,75.0,30.12,SE,137,6.0,10.0,82,-99.99,,,-99.99,,2013-07-30 07:23:00,
2013-07-30 03:30:00,81.0,75.0,30.11,SE,129,5.0,8.0,82,-99.99,,,-99.99,,2013-07-30 07:30:00,
2013-07-30 03:43:00,81.0,75.0,30.11,SE,127,5.0,9.0,81,-99.99,,,-99.99,,2013-07-30 07:43:00,
2013-07-30 03:53:00,81.0,75.0,30.11,SE,127,5.0,9.0,81,-99.99,,,-99.99,,2013-07-30 07:53:00,
2013-07-30 04:03:00,81.0,75.0,30.11,SE,129,5.0,8.0,82,-99.99,,,-99.99,,2013-07-30 08:03:00,
2013-07-30 04:13:00,81.0,75.0,30.11,SE,129,5.0,8.0,82,-99.99,,,-99.99,,2013-07-30 08:13:00,
2013-07-30 04:23:00,81.0,75.0,30.11,SE,129,5.0,8.0,82,-99.99,,,-99.99,,2013-07-30 08:23:00,
2013-07-30 04:43:00,79.0,73.0,30.10,SE,143,1.0,4.0,82,-99.99,,,-99.99,,2013-07-30 08:43:00,
2013-07-30 05:03:00,79.0,74.0,30.10,SW,222,1.0,2.0,85,-99.99,,,-99.99,,2013-07-30 09:03:00,
2013-07-30 05:13:00,79.0,74.0,30.10,SW,222,1.0,2.0,85,-99.99,,,-99.99,,2013-07-30 09:13:00,
2013-07-30 05:43:00,81.0,76.0,30.10,SE,136,6.0,10.0,83,-99.99,,,-99.99,,2013-07-30 09:43:00,
2013-07-30 05:53:00,81.0,76.0,30.10,SE,136,6.0,10.0,83,-99.99,,,-99.99,,2013-07-30 09:53:00,
2013-07-30 06:12:00,81.0,75.0,30.10,SSE,157,7.0,12.0,81,-99.99,,,-99.99,,2013-07-30 10:12:00,
2013-07-30 06:52:00,76.0,69.0,30.10,West,270,1.0,3.0,76,-99.99,,,-99.99,,2013-07-30 10:52:00,
2013-07-30 07:02:00,76.0,69.0,30.10,WSW,240,1.0,3.0,77,-99.99,,,-99.99,,2013-07-30 11:02:00,
2013-07-30 07:22:00,76.0,69.0,30.10,SSW,213,1.0,2.0,78,-99.99,,,-99.99,,2013-07-30 11:22:00,
2013-07-30 07:33:00,76.0,69.0,30.10,SSW,213,1.0,2.0,78,-99.99,,,-99.99,,2013-07-30 11:33:00,
2013-07-30 07:43:00,76.0,69.0,30.10,SSW,213,1.0,2.0,78,-99.99,,,-99.99,,2013-07-30 11:43:00,
2013-07-30 08:22:00,78.0,71.0,30.12,South,186,1.0,3.0,80,-99.99,,,-99.99,,2013-07-30 12:22:00,
2013-07-30 08:33:00,78.0,71.0,30.12,South,186,1.0,3.0,80,-99.99,,,-99.99,,2013-07-30 12:33:00,
2013-07-30 08:42:00,82.0,74.0,30.12,WSW,251,2.0,3.0,75,-99.99,,,-99.99,,2013-07-30 12:42:00,
2013-07-30 08:53:00,82.0,74.0,30.12,WSW,251,2.0,3.0,75,-99.99,,,-99.99,,2013-07-30 12:53:00,
2013-07-30 09:02:00,82.0,74.0,30.12,WSW,251,2.0,3.0,75,-99.99,,,-99.99,,2013-07-30 13:02:00,
2013-07-30 09:12:00,82.0,74.0,30.12,WSW,251,2.0,3.0,75,-99.99,,,-99.99,,2013-07-30 13:12:00,
2013-07-30 09:22:00,83.0,75.0,30.14,West,274,3.0,7.0,76,-99.99,,,-99.99,,2013-07-30 13:22:00,
2013-07-30 09:33:00,83.0,75.0,30.14,West,274,3.0,7.0,76,-99.99,,,-99.99,,2013-07-30 13:33:00,
2013-07-30 09:43:00,85.0,76.0,30.14,ESE,122,6.0,11.0,75,-99.99,,,-99.99,,2013-07-30 13:43:00,
2013-07-30 09:52:00,85.0,76.0,30.14,ESE,122,6.0,11.0,75,-99.99,,,-99.99,,2013-07-30 13:52:00,
2013-07-30 10:03:00,84.0,76.0,30.15,ESE,114,7.0,11.0,75,-99.99,,,-99.99,,2013-07-30 14:03:00,
2013-07-30 10:12:00,84.0,76.0,30.15,ESE,114,7.0,11.0,75,-99.99,,,-99.99,,2013-07-30 14:12:00,
2013-07-30 10:22:00,84.0,76.0,30.15,ESE,120,7.0,13.0,75,-99.99,,,-99.99,,2013-07-30 14:22:00,
2013-07-30 10:33:00,84.0,76.0,30.15,ESE,120,7.0,13.0,75,-99.99,,,-99.99,,2013-07-30 14:33:00,
2013-07-30 11:02:00,85.0,76.0,30.15,ESE,116,8.0,13.0,74,-99.99,,,-99.99,,2013-07-30 15:02:00,
2013-07-30 11:23:00,85.0,76.0,30.16,SE,126,9.0,14.0,75,-99.99,,,-99.99,,2013-07-30 15:23:00,
2013-07-30 11:33:00,85.0,76.0,30.16,SE,126,9.0,14.0,75,-99.99,,,-99.99,,2013-07-30 15:33:00,
2013-07-30 11:53:00,85.0,75.0,30.16,SE,124,8.0,15.0,73,-99.99,,,-99.99,,2013-07-30 15:53:00,
2013-07-30 12:02:00,85.0,75.0,30.16,SE,124,8.0,15.0,73,-99.99,,,-99.99,,2013-07-30 16:02:00,
2013-07-30 12:12:00,85.0,75.0,30.16,SE,124,8.0,15.0,73,-99.99,,,-99.99,,2013-07-30 16:12:00,
2013-07-30 12:23:00,85.0,75.0,30.16,SE,124,8.0,15.0,73,-99.99,,,-99.99,,2013-07-30 16:23:00,
2013-07-30 13:02:00,85.0,76.0,30.15,ESE,121,9.0,17.0,73,-99.99,,,-99.99,,2013-07-30 17:02:00,
2013-07-30 13:12:00,85.0,76.0,30.15,ESE,121,9.0,17.0,73,-99.99,,,-99.99,,2013-07-30 17:12:00,
2013-07-30 13:22:00,86.0,77.0,30.15,ESE,106,8.0,14.0,74,-99.99,,,-99.99,,2013-07-30 17:22:00,
2013-07-30 13:30:00,85.0,76.0,30.14,ESE,115,9.0,18.0,73,-99.99,,,-99.99,,2013-07-30 17:30:00,
2013-07-30 13:32:00,86.0,77.0,30.15,ESE,106,8.0,14.0,74,-99.99,,,-99.99,,2013-07-30 17:32:00,
2013-07-30 13:54:00,85.0,76.0,30.15,ESE,123,10.0,17.0,75,-99.99,,,-99.99,,2013-07-30 17:54:00,
2013-07-30 14:03:00,85.0,76.0,30.14,ESE,115,9.0,18.0,73,-99.99,,,-99.99,,2013-07-30 18:03:00,
2013-07-30 14:12:00,85.0,76.0,30.14,ESE,115,9.0,18.0,73,-99.99,,,-99.99,,2013-07-30 18:12:00,
2013-07-30 14:23:00,85.0,76.0,30.14,ESE,115,9.0,18.0,73,-99.99,,,-99.99,,2013-07-30 18:23:00,
2013-07-30 14:52:00,85.0,76.0,30.13,ESE,105,8.0,15.0,73,-99.99,,,-99.99,,2013-07-30 18:52:00,
2013-07-30 15:03:00,85.0,76.0,30.14,ESE,119,9.0,14.0,74,-99.99,,,-99.99,,2013-07-30 19:03:00,
2013-07-30 15:12:00,85.0,76.0,30.14,ESE,119,9.0,14.0,74,-99.99,,,-99.99,,2013-07-30 19:12:00,
2013-07-30 15:52:00,85.0,76.0,30.13,ESE,114,8.0,13.0,73,-99.99,,,-99.99,,2013-07-30 19:52:00,
2013-07-30 16:02:00,85.0,75.0,30.12,ESE,103,8.0,12.0,72,-99.99,,,-99.99,,2013-07-30 20:02:00,
2013-07-30 16:12:00,85.0,75.0,30.12,ESE,103,8.0,12.0,72,-99.99,,,-99.99,,2013-07-30 20:12:00,
2013-07-30 16:43:00,85.0,76.0,30.10,ESE,105,8.0,15.0,72,-99.99,,,-99.99,,2013-07-30 20:43:00,
2013-07-30 16:52:00,85.0,76.0,30.10,ESE,105,8.0,15.0,72,-99.99,,,-99.99,,2013-07-30 20:52:00,
2013-07-30 17:12:00,86.0,76.0,30.10,ESE,109,8.0,15.0,73,-99.99,,,-99.99,,2013-07-30 21:12:00,
2013-07-30 17:22:00,85.0,76.0,30.09,ESE,113,8.0,14.0,73,-99.99,,,-99.99,,2013-07-30 21:22:00,
2013-07-30 17:32:00,85.0,76.0,30.09,ESE,113,8.0,14.0,73,-99.99,,,-99.99,,2013-07-30 21:32:00,
2013-07-30 17:42:00,85.0,76.0,30.09,ESE,113,8.0,14.0,73,-99.99,,,-99.99,,2013-07-30 21:42:00,
2013-07-30 19:42:00,84.0,76.0,30.09,East,101,5.0,10.0,77,-99.99,,,-99.99,,2013-07-30 23:42:00,
2013-07-30 20:02:00,84.0,76.0,30.09,ESE,104,5.0,10.0,76,-99.99,,,-99.99,,2013-07-31 00:02:00,
2013-07-30 20:22:00,83.0,76.0,30.09,East,96,6.0,11.0,77,-99.99,,,-99.99,,2013-07-31 00:22:00,
2013-07-30 20:32:00,83.0,76.0,30.09,East,96,6.0,11.0,77,-99.99,,,-99.99,,2013-07-31 00:32:00,
2013-07-30 20:43:00,83.0,76.0,30.09,East,96,6.0,11.0,77,-99.99,,,-99.99,,2013-07-31 00:43:00,
2013-07-30 21:02:00,83.0,76.0,30.10,ESE,117,6.0,10.0,78,-99.99,,,-99.99,,2013-07-31 01:02:00,
2013-07-30 21:12:00,83.0,76.0,30.10,ESE,117,6.0,10.0,78,-99.99,,,-99.99,,2013-07-31 01:12:00,
2013-07-30 21:22:00,83.0,75.0,30.10,ESE,116,5.0,10.0,77,-99.99,,,-99.99,,2013-07-31 01:22:00,
2013-07-30 21:32:00,83.0,75.0,30.10,ESE,116,5.0,10.0,77,-99.99,,,-99.99,,2013-07-31 01:32:00,
2013-07-30 21:43:00,83.0,75.0,30.10,ESE,116,5.0,10.0,77,-99.99,,,-99.99,,2013-07-31 01:43:00,
2013-07-30 23:52:00,82.0,76.0,30.11,ESE,115,3.0,7.0,83,-99.99,,,-99.99,,2013-07-31 03:52:00,